sensor_id;sensor_type;location;lat;lon;timestamp;P1;durP1;ratioP1;P2;durP2;ratioP2
44832;SDS011;30569;51.252;9.830;2023-02-23T00:03:47;31.38;;;17.30;;
44832;SDS011;30569;51.252;9.830;2023-02-23T00:06:13;28.75;;;17.20;;
44832;SDS011;30569;51.252;9.830;2023-02-23T00:08:40;29.57;;;18.87;;
44832;SDS011;30569;51.252;9.830;2023-02-23T00:11:07;25.83;;;16.50;;
44832;SDS011;30569;51.252;9.830;2023-02-23T00:13:38;30.92;;;17.67;;
44832;SDS011;30569;51.252;9.830;2023-02-23T00:16:09;27.75;;;17.15;;
44832;SDS011;30569;51.252;9.830;2023-02-23T00:18:37;28.47;;;18.07;;
44832;SDS011;30569;51.252;9.830;2023-02-23T00:21:12;25.35;;;16.80;;
44832;SDS011;30569;51.252;9.830;2023-02-23T00:23:46;26.20;;;16.00;;
44832;SDS011;30569;51.252;9.830;2023-02-23T00:26:22;25.40;;;15.80;;
44832;SDS011;30569;51.252;9.830;2023-02-23T00:28:48;26.30;;;16.08;;
44832;SDS011;30569;51.252;9.830;2023-02-23T00:31:17;28.85;;;16.27;;
44832;SDS011;30569;51.252;9.830;2023-02-23T00:33:49;28.17;;;16.63;;
44832;SDS011;30569;51.252;9.830;2023-02-23T00:36:19;21.13;;;14.18;;
44832;SDS011;30569;51.252;9.830;2023-02-23T00:38:47;25.90;;;15.70;;
44832;SDS011;30569;51.252;9.830;2023-02-23T00:41:17;25.20;;;15.05;;
44832;SDS011;30569;51.252;9.830;2023-02-23T00:43:52;24.17;;;15.02;;
44832;SDS011;30569;51.252;9.830;2023-02-23T00:46:20;24.60;;;15.65;;
44832;SDS011;30569;51.252;9.830;2023-02-23T00:48:48;24.00;;;14.27;;
44832;SDS011;30569;51.252;9.830;2023-02-23T00:51:15;23.60;;;14.55;;
44832;SDS011;30569;51.252;9.830;2023-02-23T00:53:41;26.05;;;15.15;;
44832;SDS011;30569;51.252;9.830;2023-02-23T00:56:08;26.25;;;15.15;;
44832;SDS011;30569;51.252;9.830;2023-02-23T00:58:35;23.77;;;15.68;;
44832;SDS011;30569;51.252;9.830;2023-02-23T01:01:01;26.85;;;16.13;;
44832;SDS011;30569;51.252;9.830;2023-02-23T01:03:29;23.38;;;14.80;;
44832;SDS011;30569;51.252;9.830;2023-02-23T01:06:02;32.45;;;17.48;;
44832;SDS011;30569;51.252;9.830;2023-02-23T01:08:33;27.27;;;15.70;;
44832;SDS011;30569;51.252;9.830;2023-02-23T01:11:04;29.83;;;18.23;;
44832;SDS011;30569;51.252;9.830;2023-02-23T01:13:31;24.85;;;14.80;;
44832;SDS011;30569;51.252;9.830;2023-02-23T01:15:57;26.90;;;16.75;;
44832;SDS011;30569;51.252;9.830;2023-02-23T01:18:23;26.38;;;15.63;;
44832;SDS011;30569;51.252;9.830;2023-02-23T01:20:48;31.38;;;18.27;;
44832;SDS011;30569;51.252;9.830;2023-02-23T01:23:14;26.77;;;15.90;;
44832;SDS011;30569;51.252;9.830;2023-02-23T01:25:41;27.00;;;16.75;;
44832;SDS011;30569;51.252;9.830;2023-02-23T01:28:09;26.42;;;16.67;;
44832;SDS011;30569;51.252;9.830;2023-02-23T01:30:34;33.08;;;18.38;;
44832;SDS011;30569;51.252;9.830;2023-02-23T01:33:00;29.10;;;16.65;;
44832;SDS011;30569;51.252;9.830;2023-02-23T01:35:26;30.95;;;18.08;;
44832;SDS011;30569;51.252;9.830;2023-02-23T01:37:52;30.05;;;17.77;;
44832;SDS011;30569;51.252;9.830;2023-02-23T01:40:19;28.55;;;17.40;;
44832;SDS011;30569;51.252;9.830;2023-02-23T01:42:53;31.20;;;18.27;;
44832;SDS011;30569;51.252;9.830;2023-02-23T01:47:57;27.85;;;17.10;;
44832;SDS011;30569;51.252;9.830;2023-02-23T01:50:38;29.42;;;18.08;;
44832;SDS011;30569;51.252;9.830;2023-02-23T01:53:12;34.15;;;17.27;;
44832;SDS011;30569;51.252;9.830;2023-02-23T01:55:38;31.45;;;18.52;;
44832;SDS011;30569;51.252;9.830;2023-02-23T01:58:05;30.50;;;18.33;;
44832;SDS011;30569;51.252;9.830;2023-02-23T02:00:39;31.02;;;18.60;;
44832;SDS011;30569;51.252;9.830;2023-02-23T02:03:06;36.63;;;19.33;;
44832;SDS011;30569;51.252;9.830;2023-02-23T02:05:36;29.92;;;18.15;;
44832;SDS011;30569;51.252;9.830;2023-02-23T02:08:03;30.67;;;17.88;;
44832;SDS011;30569;51.252;9.830;2023-02-23T02:10:31;28.33;;;16.77;;
44832;SDS011;30569;51.252;9.830;2023-02-23T02:13:11;28.55;;;16.20;;
44832;SDS011;30569;51.252;9.830;2023-02-23T02:15:55;29.45;;;18.75;;
44832;SDS011;30569;51.252;9.830;2023-02-23T02:18:41;34.25;;;18.55;;
44832;SDS011;30569;51.252;9.830;2023-02-23T02:37:51;28.52;;;18.13;;
44832;SDS011;30569;51.252;9.830;2023-02-23T02:46:28;32.63;;;19.40;;
44832;SDS011;30569;51.252;9.830;2023-02-23T02:49:07;29.23;;;18.55;;
44832;SDS011;30569;51.252;9.830;2023-02-23T02:51:51;29.88;;;17.75;;
44832;SDS011;30569;51.252;9.830;2023-02-23T02:54:30;31.67;;;17.73;;
44832;SDS011;30569;51.252;9.830;2023-02-23T02:57:03;31.35;;;17.65;;
44832;SDS011;30569;51.252;9.830;2023-02-23T02:59:30;30.02;;;18.60;;
44832;SDS011;30569;51.252;9.830;2023-02-23T03:02:16;31.20;;;18.08;;
44832;SDS011;30569;51.252;9.830;2023-02-23T03:05:12;32.83;;;18.65;;
44832;SDS011;30569;51.252;9.830;2023-02-23T03:08:07;30.85;;;18.00;;
44832;SDS011;30569;51.252;9.830;2023-02-23T03:11:01;36.90;;;19.98;;
44832;SDS011;30569;51.252;9.830;2023-02-23T03:14:07;33.55;;;19.52;;
44832;SDS011;30569;51.252;9.830;2023-02-23T03:20:58;35.28;;;20.70;;
44832;SDS011;30569;51.252;9.830;2023-02-23T03:26:34;40.33;;;22.65;;
44832;SDS011;30569;51.252;9.830;2023-02-23T03:32:31;42.08;;;24.23;;
44832;SDS011;30569;51.252;9.830;2023-02-23T03:35:50;46.10;;;25.02;;
44832;SDS011;30569;51.252;9.830;2023-02-23T03:38:53;47.30;;;25.02;;
44832;SDS011;30569;51.252;9.830;2023-02-23T03:41:56;49.55;;;26.95;;
44832;SDS011;30569;51.252;9.830;2023-02-23T03:44:44;48.65;;;25.85;;
44832;SDS011;30569;51.252;9.830;2023-02-23T03:47:32;49.40;;;27.15;;
44832;SDS011;30569;51.252;9.830;2023-02-23T03:50:44;47.72;;;27.27;;
44832;SDS011;30569;51.252;9.830;2023-02-23T03:53:28;51.45;;;27.67;;
44832;SDS011;30569;51.252;9.830;2023-02-23T03:56:18;51.72;;;29.10;;
44832;SDS011;30569;51.252;9.830;2023-02-23T03:59:07;51.58;;;27.77;;
44832;SDS011;30569;51.252;9.830;2023-02-23T04:01:55;49.45;;;29.45;;
44832;SDS011;30569;51.252;9.830;2023-02-23T04:04:40;50.00;;;29.20;;
44832;SDS011;30569;51.252;9.830;2023-02-23T04:07:27;46.60;;;27.02;;
44832;SDS011;30569;51.252;9.830;2023-02-23T04:10:11;47.63;;;27.90;;
44832;SDS011;30569;51.252;9.830;2023-02-23T04:12:58;50.65;;;28.17;;
44832;SDS011;30569;51.252;9.830;2023-02-23T04:18:14;44.47;;;26.17;;
44832;SDS011;30569;51.252;9.830;2023-02-23T04:20:52;43.95;;;27.02;;
44832;SDS011;30569;51.252;9.830;2023-02-23T04:23:19;45.33;;;27.10;;
44832;SDS011;30569;51.252;9.830;2023-02-23T04:25:46;38.45;;;23.73;;
44832;SDS011;30569;51.252;9.830;2023-02-23T04:28:12;42.83;;;24.20;;
44832;SDS011;30569;51.252;9.830;2023-02-23T04:30:38;37.47;;;22.10;;
44832;SDS011;30569;51.252;9.830;2023-02-23T04:33:04;37.38;;;22.88;;
44832;SDS011;30569;51.252;9.830;2023-02-23T04:35:30;34.15;;;21.05;;
44832;SDS011;30569;51.252;9.830;2023-02-23T04:37:56;38.17;;;23.02;;
44832;SDS011;30569;51.252;9.830;2023-02-23T04:40:22;39.38;;;23.20;;
44832;SDS011;30569;51.252;9.830;2023-02-23T04:42:48;38.03;;;22.42;;
44832;SDS011;30569;51.252;9.830;2023-02-23T04:45:14;40.17;;;23.73;;
44832;SDS011;30569;51.252;9.830;2023-02-23T04:47:40;39.40;;;22.27;;
44832;SDS011;30569;51.252;9.830;2023-02-23T04:50:06;36.63;;;21.67;;
44832;SDS011;30569;51.252;9.830;2023-02-23T04:52:32;36.55;;;21.50;;
44832;SDS011;30569;51.252;9.830;2023-02-23T04:54:59;38.55;;;21.95;;
44832;SDS011;30569;51.252;9.830;2023-02-23T04:57:25;36.97;;;22.15;;
44832;SDS011;30569;51.252;9.830;2023-02-23T04:59:51;42.08;;;22.45;;
44832;SDS011;30569;51.252;9.830;2023-02-23T05:02:17;44.55;;;23.60;;
44832;SDS011;30569;51.252;9.830;2023-02-23T05:04:43;43.47;;;23.52;;
44832;SDS011;30569;51.252;9.830;2023-02-23T05:07:09;42.13;;;24.13;;
44832;SDS011;30569;51.252;9.830;2023-02-23T05:09:35;43.55;;;24.65;;
44832;SDS011;30569;51.252;9.830;2023-02-23T05:12:01;46.85;;;25.75;;
44832;SDS011;30569;51.252;9.830;2023-02-23T05:14:26;43.97;;;26.23;;
44832;SDS011;30569;51.252;9.830;2023-02-23T05:16:52;45.10;;;27.30;;
44832;SDS011;30569;51.252;9.830;2023-02-23T05:19:18;44.47;;;25.67;;
44832;SDS011;30569;51.252;9.830;2023-02-23T05:21:44;40.05;;;24.42;;
44832;SDS011;30569;51.252;9.830;2023-02-23T05:24:09;42.10;;;24.63;;
44832;SDS011;30569;51.252;9.830;2023-02-23T05:26:35;39.25;;;24.33;;
44832;SDS011;30569;51.252;9.830;2023-02-23T05:29:01;42.10;;;24.60;;
44832;SDS011;30569;51.252;9.830;2023-02-23T05:31:29;45.80;;;26.65;;
44832;SDS011;30569;51.252;9.830;2023-02-23T05:33:54;46.75;;;27.13;;
44832;SDS011;30569;51.252;9.830;2023-02-23T05:36:20;47.42;;;28.35;;
44832;SDS011;30569;51.252;9.830;2023-02-23T05:38:46;48.55;;;26.13;;
44832;SDS011;30569;51.252;9.830;2023-02-23T05:41:20;38.85;;;22.02;;
44832;SDS011;30569;51.252;9.830;2023-02-23T05:43:47;36.67;;;22.90;;
44832;SDS011;30569;51.252;9.830;2023-02-23T05:46:22;35.72;;;23.35;;
44832;SDS011;30569;51.252;9.830;2023-02-23T05:48:56;43.20;;;25.70;;
44832;SDS011;30569;51.252;9.830;2023-02-23T05:51:24;45.95;;;26.67;;
44832;SDS011;30569;51.252;9.830;2023-02-23T05:53:50;43.55;;;26.58;;
44832;SDS011;30569;51.252;9.830;2023-02-23T05:56:16;44.92;;;27.95;;
44832;SDS011;30569;51.252;9.830;2023-02-23T05:58:44;45.15;;;26.50;;
44832;SDS011;30569;51.252;9.830;2023-02-23T06:01:13;42.08;;;25.27;;
44832;SDS011;30569;51.252;9.830;2023-02-23T06:03:39;44.90;;;29.05;;
44832;SDS011;30569;51.252;9.830;2023-02-23T06:06:05;48.47;;;28.92;;
44832;SDS011;30569;51.252;9.830;2023-02-23T06:08:31;49.08;;;28.77;;
44832;SDS011;30569;51.252;9.830;2023-02-23T06:10:57;46.92;;;29.13;;
44832;SDS011;30569;51.252;9.830;2023-02-23T06:13:22;47.83;;;30.60;;
44832;SDS011;30569;51.252;9.830;2023-02-23T06:15:48;45.65;;;27.90;;
44832;SDS011;30569;51.252;9.830;2023-02-23T06:18:14;48.72;;;29.27;;
44832;SDS011;30569;51.252;9.830;2023-02-23T06:20:41;41.22;;;25.95;;
44832;SDS011;30569;51.252;9.830;2023-02-23T06:23:06;42.85;;;26.33;;
44832;SDS011;30569;51.252;9.830;2023-02-23T06:25:32;38.17;;;22.92;;
44832;SDS011;30569;51.252;9.830;2023-02-23T06:27:58;38.28;;;23.73;;
44832;SDS011;30569;51.252;9.830;2023-02-23T06:30:24;33.20;;;22.60;;
44832;SDS011;30569;51.252;9.830;2023-02-23T06:32:50;38.67;;;24.63;;
44832;SDS011;30569;51.252;9.830;2023-02-23T06:35:16;38.22;;;23.45;;
44832;SDS011;30569;51.252;9.830;2023-02-23T06:37:42;42.85;;;25.65;;
44832;SDS011;30569;51.252;9.830;2023-02-23T06:40:08;36.85;;;23.20;;
44832;SDS011;30569;51.252;9.830;2023-02-23T06:42:34;39.90;;;24.35;;
44832;SDS011;30569;51.252;9.830;2023-02-23T06:45:04;41.05;;;23.38;;
44832;SDS011;30569;51.252;9.830;2023-02-23T06:47:30;39.30;;;25.02;;
44832;SDS011;30569;51.252;9.830;2023-02-23T06:49:56;42.88;;;25.58;;
44832;SDS011;30569;51.252;9.830;2023-02-23T06:52:23;44.50;;;24.80;;
44832;SDS011;30569;51.252;9.830;2023-02-23T06:54:50;49.63;;;26.90;;
44832;SDS011;30569;51.252;9.830;2023-02-23T06:57:17;51.88;;;29.67;;
44832;SDS011;30569;51.252;9.830;2023-02-23T06:59:43;49.60;;;28.98;;
44832;SDS011;30569;51.252;9.830;2023-02-23T07:02:10;49.38;;;30.58;;
44832;SDS011;30569;51.252;9.830;2023-02-23T07:04:36;52.38;;;31.23;;
44832;SDS011;30569;51.252;9.830;2023-02-23T07:07:02;50.65;;;30.50;;
44832;SDS011;30569;51.252;9.830;2023-02-23T07:09:28;60.63;;;36.95;;
44832;SDS011;30569;51.252;9.830;2023-02-23T07:11:55;61.70;;;36.17;;
44832;SDS011;30569;51.252;9.830;2023-02-23T07:14:20;57.15;;;34.85;;
44832;SDS011;30569;51.252;9.830;2023-02-23T07:16:46;52.03;;;32.08;;
44832;SDS011;30569;51.252;9.830;2023-02-23T07:19:12;58.63;;;35.58;;
44832;SDS011;30569;51.252;9.830;2023-02-23T07:21:38;55.08;;;34.00;;
44832;SDS011;30569;51.252;9.830;2023-02-23T07:24:03;57.92;;;35.90;;
44832;SDS011;30569;51.252;9.830;2023-02-23T07:26:33;80.43;;;44.35;;
44832;SDS011;30569;51.252;9.830;2023-02-23T07:28:59;78.28;;;43.45;;
44832;SDS011;30569;51.252;9.830;2023-02-23T07:31:25;71.03;;;41.65;;
44832;SDS011;30569;51.252;9.830;2023-02-23T07:33:51;71.05;;;41.10;;
44832;SDS011;30569;51.252;9.830;2023-02-23T07:36:21;67.35;;;37.58;;
44832;SDS011;30569;51.252;9.830;2023-02-23T07:38:48;65.68;;;37.88;;
44832;SDS011;30569;51.252;9.830;2023-02-23T07:41:14;71.25;;;38.53;;
44832;SDS011;30569;51.252;9.830;2023-02-23T07:43:40;67.22;;;39.67;;
44832;SDS011;30569;51.252;9.830;2023-02-23T07:46:06;72.25;;;37.58;;
44832;SDS011;30569;51.252;9.830;2023-02-23T07:48:33;75.30;;;41.45;;
44832;SDS011;30569;51.252;9.830;2023-02-23T07:50:59;74.90;;;44.03;;
44832;SDS011;30569;51.252;9.830;2023-02-23T07:53:25;83.03;;;49.35;;
44832;SDS011;30569;51.252;9.830;2023-02-23T07:55:59;98.57;;;59.35;;
44832;SDS011;30569;51.252;9.830;2023-02-23T07:58:25;109.43;;;65.53;;
44832;SDS011;30569;51.252;9.830;2023-02-23T08:00:51;98.30;;;61.70;;
44832;SDS011;30569;51.252;9.830;2023-02-23T08:03:17;101.88;;;60.88;;
44832;SDS011;30569;51.252;9.830;2023-02-23T08:05:43;101.68;;;60.55;;
44832;SDS011;30569;51.252;9.830;2023-02-23T08:08:09;93.43;;;56.47;;
44832;SDS011;30569;51.252;9.830;2023-02-23T08:10:35;93.82;;;57.67;;
44832;SDS011;30569;51.252;9.830;2023-02-23T08:13:02;91.28;;;55.85;;
44832;SDS011;30569;51.252;9.830;2023-02-23T08:15:28;81.20;;;47.70;;
44832;SDS011;30569;51.252;9.830;2023-02-23T08:17:55;73.53;;;40.25;;
44832;SDS011;30569;51.252;9.830;2023-02-23T08:20:21;71.65;;;41.45;;
44832;SDS011;30569;51.252;9.830;2023-02-23T08:22:51;65.82;;;36.22;;
44832;SDS011;30569;51.252;9.830;2023-02-23T08:25:20;61.60;;;37.05;;
44832;SDS011;30569;51.252;9.830;2023-02-23T08:27:46;56.58;;;31.45;;
44832;SDS011;30569;51.252;9.830;2023-02-23T08:30:15;57.20;;;33.63;;
44832;SDS011;30569;51.252;9.830;2023-02-23T08:32:43;55.08;;;33.40;;
44832;SDS011;30569;51.252;9.830;2023-02-23T08:35:08;56.85;;;34.97;;
44832;SDS011;30569;51.252;9.830;2023-02-23T08:37:34;63.28;;;36.63;;
44832;SDS011;30569;51.252;9.830;2023-02-23T08:40:00;76.57;;;41.42;;
44832;SDS011;30569;51.252;9.830;2023-02-23T08:42:26;75.18;;;39.72;;
44832;SDS011;30569;51.252;9.830;2023-02-23T08:44:52;81.03;;;41.50;;
44832;SDS011;30569;51.252;9.830;2023-02-23T08:47:17;57.35;;;34.58;;
44832;SDS011;30569;51.252;9.830;2023-02-23T08:49:50;52.08;;;32.55;;
44832;SDS011;30569;51.252;9.830;2023-02-23T08:52:18;52.25;;;32.67;;
44832;SDS011;30569;51.252;9.830;2023-02-23T08:54:45;52.72;;;31.45;;
44832;SDS011;30569;51.252;9.830;2023-02-23T08:57:11;57.63;;;34.15;;
44832;SDS011;30569;51.252;9.830;2023-02-23T08:59:38;55.67;;;31.88;;
44832;SDS011;30569;51.252;9.830;2023-02-23T09:02:05;58.83;;;32.85;;
44832;SDS011;30569;51.252;9.830;2023-02-23T09:04:32;54.70;;;32.67;;
44832;SDS011;30569;51.252;9.830;2023-02-23T09:06:59;53.92;;;32.97;;
44832;SDS011;30569;51.252;9.830;2023-02-23T09:09:25;55.47;;;32.58;;
44832;SDS011;30569;51.252;9.830;2023-02-23T09:11:51;53.80;;;32.45;;
44832;SDS011;30569;51.252;9.830;2023-02-23T09:14:17;57.70;;;34.30;;
44832;SDS011;30569;51.252;9.830;2023-02-23T09:16:43;50.40;;;32.20;;
44832;SDS011;30569;51.252;9.830;2023-02-23T09:19:10;53.05;;;32.42;;
44832;SDS011;30569;51.252;9.830;2023-02-23T09:21:36;57.90;;;33.58;;
44832;SDS011;30569;51.252;9.830;2023-02-23T09:24:02;60.45;;;34.50;;
44832;SDS011;30569;51.252;9.830;2023-02-23T09:26:27;59.50;;;35.05;;
44832;SDS011;30569;51.252;9.830;2023-02-23T09:28:54;56.78;;;33.08;;
44832;SDS011;30569;51.252;9.830;2023-02-23T09:31:22;63.08;;;36.40;;
44832;SDS011;30569;51.252;9.830;2023-02-23T09:33:48;61.38;;;35.10;;
44832;SDS011;30569;51.252;9.830;2023-02-23T09:36:16;62.38;;;34.70;;
44832;SDS011;30569;51.252;9.830;2023-02-23T09:38:47;60.20;;;33.70;;
44832;SDS011;30569;51.252;9.830;2023-02-23T09:49:10;59.85;;;33.42;;
44832;SDS011;30569;51.252;9.830;2023-02-23T09:54:10;60.00;;;32.60;;
44832;SDS011;30569;51.252;9.830;2023-02-23T09:56:46;54.05;;;32.22;;
44832;SDS011;30569;51.252;9.830;2023-02-23T09:59:17;54.03;;;31.95;;
44832;SDS011;30569;51.252;9.830;2023-02-23T10:04:42;61.00;;;34.10;;
44832;SDS011;30569;51.252;9.830;2023-02-23T10:09:51;58.67;;;32.15;;
44832;SDS011;30569;51.252;9.830;2023-02-23T10:15:41;57.17;;;33.25;;
44832;SDS011;30569;51.252;9.830;2023-02-23T10:18:26;54.03;;;32.55;;
44832;SDS011;30569;51.252;9.830;2023-02-23T10:21:11;64.63;;;34.60;;
44832;SDS011;30569;51.252;9.830;2023-02-23T10:24:00;59.42;;;34.75;;
44832;SDS011;30569;51.252;9.830;2023-02-23T10:26:28;60.67;;;37.00;;
44832;SDS011;30569;51.252;9.830;2023-02-23T10:29:02;67.45;;;35.47;;
44832;SDS011;30569;51.252;9.830;2023-02-23T10:31:40;63.10;;;34.70;;
44832;SDS011;30569;51.252;9.830;2023-02-23T10:34:15;62.40;;;35.05;;
44832;SDS011;30569;51.252;9.830;2023-02-23T10:36:47;59.17;;;32.35;;
44832;SDS011;30569;51.252;9.830;2023-02-23T10:39:19;60.88;;;33.42;;
44832;SDS011;30569;51.252;9.830;2023-02-23T10:41:44;60.20;;;34.33;;
44832;SDS011;30569;51.252;9.830;2023-02-23T10:44:14;62.30;;;34.45;;
44832;SDS011;30569;51.252;9.830;2023-02-23T10:46:44;59.03;;;33.05;;
44832;SDS011;30569;51.252;9.830;2023-02-23T10:49:18;66.90;;;33.55;;
44832;SDS011;30569;51.252;9.830;2023-02-23T10:51:47;63.75;;;33.47;;
44832;SDS011;30569;51.252;9.830;2023-02-23T10:56:59;63.58;;;35.35;;
44832;SDS011;30569;51.252;9.830;2023-02-23T10:59:25;53.05;;;31.73;;
44832;SDS011;30569;51.252;9.830;2023-02-23T11:01:52;62.28;;;32.85;;
44832;SDS011;30569;51.252;9.830;2023-02-23T11:06:49;56.17;;;32.67;;
44832;SDS011;30569;51.252;9.830;2023-02-23T11:14:45;64.50;;;33.35;;
44832;SDS011;30569;51.252;9.830;2023-02-23T11:17:35;52.38;;;30.63;;
44832;SDS011;30569;51.252;9.830;2023-02-23T11:20:18;49.33;;;30.25;;
44832;SDS011;30569;51.252;9.830;2023-02-23T11:22:51;55.65;;;30.85;;
44832;SDS011;30569;51.252;9.830;2023-02-23T11:25:23;52.00;;;30.60;;
44832;SDS011;30569;51.252;9.830;2023-02-23T11:27:53;49.13;;;30.30;;
44832;SDS011;30569;51.252;9.830;2023-02-23T11:30:21;59.10;;;32.08;;
44832;SDS011;30569;51.252;9.830;2023-02-23T11:32:54;57.63;;;31.55;;
44832;SDS011;30569;51.252;9.830;2023-02-23T11:37:50;55.08;;;28.95;;
44832;SDS011;30569;51.252;9.830;2023-02-23T11:45:32;54.85;;;32.28;;
44832;SDS011;30569;51.252;9.830;2023-02-23T11:48:14;56.97;;;32.45;;
44832;SDS011;30569;51.252;9.830;2023-02-23T11:50:49;50.28;;;29.60;;
44832;SDS011;30569;51.252;9.830;2023-02-23T11:53:18;56.53;;;31.20;;
44832;SDS011;30569;51.252;9.830;2023-02-23T11:55:53;54.80;;;30.15;;
44832;SDS011;30569;51.252;9.830;2023-02-23T12:00:57;53.72;;;31.70;;
44832;SDS011;30569;51.252;9.830;2023-02-23T12:04:10;49.35;;;30.05;;
44832;SDS011;30569;51.252;9.830;2023-02-23T12:09:45;43.95;;;25.85;;
44832;SDS011;30569;51.252;9.830;2023-02-23T12:11:51;36.80;;;22.35;;
44832;SDS011;30569;51.252;9.830;2023-02-23T12:14:40;34.53;;;21.90;;
44832;SDS011;30569;51.252;9.830;2023-02-23T12:17:17;36.28;;;21.63;;
44832;SDS011;30569;51.252;9.830;2023-02-23T12:19:45;38.10;;;22.15;;
44832;SDS011;30569;51.252;9.830;2023-02-23T12:22:20;34.50;;;21.23;;
44832;SDS011;30569;51.252;9.830;2023-02-23T12:24:58;33.20;;;20.63;;
44832;SDS011;30569;51.252;9.830;2023-02-23T12:27:39;42.08;;;23.23;;
44832;SDS011;30569;51.252;9.830;2023-02-23T12:33:10;31.67;;;19.63;;
44832;SDS011;30569;51.252;9.830;2023-02-23T12:38:25;29.50;;;17.55;;
44832;SDS011;30569;51.252;9.830;2023-02-23T12:41:02;28.42;;;18.42;;
44832;SDS011;30569;51.252;9.830;2023-02-23T12:43:36;26.00;;;15.85;;
44832;SDS011;30569;51.252;9.830;2023-02-23T12:48:47;26.67;;;17.10;;
44832;SDS011;30569;51.252;9.830;2023-02-23T12:51:29;27.08;;;15.90;;
44832;SDS011;30569;51.252;9.830;2023-02-23T12:54:08;29.17;;;18.00;;
44832;SDS011;30569;51.252;9.830;2023-02-23T13:02:12;25.15;;;15.00;;
44832;SDS011;30569;51.252;9.830;2023-02-23T13:07:49;21.75;;;14.90;;
44832;SDS011;30569;51.252;9.830;2023-02-23T13:15:54;23.63;;;14.70;;
44832;SDS011;30569;51.252;9.830;2023-02-23T13:21:43;21.77;;;13.43;;
44832;SDS011;30569;51.252;9.830;2023-02-23T13:24:18;22.88;;;14.65;;
44832;SDS011;30569;51.252;9.830;2023-02-23T13:26:55;21.73;;;13.63;;
44832;SDS011;30569;51.252;9.830;2023-02-23T13:32:02;20.88;;;13.05;;
44832;SDS011;30569;51.252;9.830;2023-02-23T13:34:33;22.58;;;13.85;;
44832;SDS011;30569;51.252;9.830;2023-02-23T13:37:04;23.30;;;12.77;;
44832;SDS011;30569;51.252;9.830;2023-02-23T13:50:26;16.77;;;11.40;;
44832;SDS011;30569;51.252;9.830;2023-02-23T13:52:54;19.33;;;11.43;;
44832;SDS011;30569;51.252;9.830;2023-02-23T13:57:51;17.13;;;11.82;;
44832;SDS011;30569;51.252;9.830;2023-02-23T14:00:28;21.55;;;12.85;;
44832;SDS011;30569;51.252;9.830;2023-02-23T14:02:54;21.50;;;13.43;;
44832;SDS011;30569;51.252;9.830;2023-02-23T14:05:21;20.15;;;12.23;;
44832;SDS011;30569;51.252;9.830;2023-02-23T14:07:53;18.80;;;12.55;;
44832;SDS011;30569;51.252;9.830;2023-02-23T14:10:27;23.38;;;13.20;;
44832;SDS011;30569;51.252;9.830;2023-02-23T14:28:38;28.80;;;18.20;;
44832;SDS011;30569;51.252;9.830;2023-02-23T14:41:22;21.10;;;13.38;;
44832;SDS011;30569;51.252;9.830;2023-02-23T14:44:04;18.05;;;12.95;;
44832;SDS011;30569;51.252;9.830;2023-02-23T14:47:27;23.85;;;16.08;;
44832;SDS011;30569;51.252;9.830;2023-02-23T14:49:46;18.95;;;13.23;;
44832;SDS011;30569;51.252;9.830;2023-02-23T14:52:26;17.77;;;13.38;;
44832;SDS011;30569;51.252;9.830;2023-02-23T14:55:05;14.35;;;9.95;;
44832;SDS011;30569;51.252;9.830;2023-02-23T14:57:40;15.13;;;11.73;;
44832;SDS011;30569;51.252;9.830;2023-02-23T15:02:39;20.77;;;15.88;;
44832;SDS011;30569;51.252;9.830;2023-02-23T15:05:16;30.92;;;23.85;;
44832;SDS011;30569;51.252;9.830;2023-02-23T15:07:43;16.88;;;10.90;;
44832;SDS011;30569;51.252;9.830;2023-02-23T15:10:11;15.77;;;11.05;;
44832;SDS011;30569;51.252;9.830;2023-02-23T15:12:44;16.95;;;11.48;;
44832;SDS011;30569;51.252;9.830;2023-02-23T15:15:21;27.20;;;19.77;;
44832;SDS011;30569;51.252;9.830;2023-02-23T15:17:49;25.30;;;18.60;;
44832;SDS011;30569;51.252;9.830;2023-02-23T15:20:19;18.13;;;12.80;;
44832;SDS011;30569;51.252;9.830;2023-02-23T15:22:50;19.13;;;13.35;;
44832;SDS011;30569;51.252;9.830;2023-02-23T15:27:46;18.92;;;13.35;;
44832;SDS011;30569;51.252;9.830;2023-02-23T15:30:31;18.30;;;13.63;;
44832;SDS011;30569;51.252;9.830;2023-02-23T15:33:03;20.38;;;13.52;;
44832;SDS011;30569;51.252;9.830;2023-02-23T15:35:52;36.90;;;21.98;;
44832;SDS011;30569;51.252;9.830;2023-02-23T15:38:23;24.45;;;16.73;;
44832;SDS011;30569;51.252;9.830;2023-02-23T15:40:57;20.35;;;13.93;;
44832;SDS011;30569;51.252;9.830;2023-02-23T15:43:26;18.02;;;13.45;;
44832;SDS011;30569;51.252;9.830;2023-02-23T15:45:54;18.83;;;13.68;;
44832;SDS011;30569;51.252;9.830;2023-02-23T15:48:23;22.98;;;16.40;;
44832;SDS011;30569;51.252;9.830;2023-02-23T15:50:55;33.58;;;20.60;;
44832;SDS011;30569;51.252;9.830;2023-02-23T15:55:52;22.75;;;15.82;;
44832;SDS011;30569;51.252;9.830;2023-02-23T15:58:23;19.67;;;14.48;;
44832;SDS011;30569;51.252;9.830;2023-02-23T16:00:54;20.17;;;14.40;;
44832;SDS011;30569;51.252;9.830;2023-02-23T16:03:27;19.70;;;14.95;;
44832;SDS011;30569;51.252;9.830;2023-02-23T16:05:58;20.45;;;14.23;;
44832;SDS011;30569;51.252;9.830;2023-02-23T16:08:26;27.83;;;17.52;;
44832;SDS011;30569;51.252;9.830;2023-02-23T16:10:54;25.52;;;18.40;;
44832;SDS011;30569;51.252;9.830;2023-02-23T16:13:40;32.10;;;22.17;;
44832;SDS011;30569;51.252;9.830;2023-02-23T16:16:07;26.83;;;19.45;;
44832;SDS011;30569;51.252;9.830;2023-02-23T16:18:44;36.15;;;25.08;;
44832;SDS011;30569;51.252;9.830;2023-02-23T16:21:16;30.83;;;23.33;;
44832;SDS011;30569;51.252;9.830;2023-02-23T16:23:46;31.92;;;23.70;;
44832;SDS011;30569;51.252;9.830;2023-02-23T16:26:17;29.42;;;20.52;;
44832;SDS011;30569;51.252;9.830;2023-02-23T16:28:48;32.25;;;23.65;;
44832;SDS011;30569;51.252;9.830;2023-02-23T16:31:23;30.88;;;21.95;;
44832;SDS011;30569;51.252;9.830;2023-02-23T16:39:19;32.67;;;21.60;;
44832;SDS011;30569;51.252;9.830;2023-02-23T16:41:46;42.47;;;27.45;;
44832;SDS011;30569;51.252;9.830;2023-02-23T16:44:13;29.38;;;18.90;;
44832;SDS011;30569;51.252;9.830;2023-02-23T16:49:35;30.23;;;19.60;;
44832;SDS011;30569;51.252;9.830;2023-02-23T16:52:02;32.88;;;20.67;;
44832;SDS011;30569;51.252;9.830;2023-02-23T16:54:39;32.78;;;23.00;;
44832;SDS011;30569;51.252;9.830;2023-02-23T16:57:05;30.73;;;19.40;;
44832;SDS011;30569;51.252;9.830;2023-02-23T16:59:37;37.28;;;21.17;;
44832;SDS011;30569;51.252;9.830;2023-02-23T17:02:02;29.33;;;18.92;;
44832;SDS011;30569;51.252;9.830;2023-02-23T17:04:33;33.67;;;19.65;;
44832;SDS011;30569;51.252;9.830;2023-02-23T17:06:59;34.42;;;22.00;;
44832;SDS011;30569;51.252;9.830;2023-02-23T17:09:25;32.22;;;20.70;;
44832;SDS011;30569;51.252;9.830;2023-02-23T17:11:52;33.53;;;21.25;;
44832;SDS011;30569;51.252;9.830;2023-02-23T17:14:22;35.72;;;22.30;;
44832;SDS011;30569;51.252;9.830;2023-02-23T17:16:50;36.80;;;23.58;;
44832;SDS011;30569;51.252;9.830;2023-02-23T17:19:15;27.63;;;17.67;;
44832;SDS011;30569;51.252;9.830;2023-02-23T17:21:43;34.30;;;20.98;;
44832;SDS011;30569;51.252;9.830;2023-02-23T17:24:09;115.72;;;58.70;;
44832;SDS011;30569;51.252;9.830;2023-02-23T17:26:35;45.42;;;25.92;;
44832;SDS011;30569;51.252;9.830;2023-02-23T17:29:01;75.63;;;43.47;;
44832;SDS011;30569;51.252;9.830;2023-02-23T17:31:27;50.28;;;33.17;;